sensor_id;sensor_type;location;lat;lon;timestamp;P1;durP1;ratioP1;P2;durP2;ratioP2
84849;SDS011;75096;49.576;11.024;2024-03-22T00:00:18;13.63;;;6.75;;
84849;SDS011;75096;49.576;11.024;2024-03-22T00:01:19;13.02;;;6.57;;
84849;SDS011;75096;49.576;11.024;2024-03-22T00:02:20;12.55;;;7.25;;
84849;SDS011;75096;49.576;11.024;2024-03-22T00:03:20;11.88;;;7.53;;
84849;SDS011;75096;49.576;11.024;2024-03-22T00:04:21;12.13;;;6.45;;
84849;SDS011;75096;49.576;11.024;2024-03-22T00:05:22;12.95;;;7.20;;
84849;SDS011;75096;49.576;11.024;2024-03-22T00:06:23;13.55;;;6.75;;
84849;SDS011;75096;49.576;11.024;2024-03-22T00:07:23;12.65;;;7.15;;
84849;SDS011;75096;49.576;11.024;2024-03-22T00:08:24;13.40;;;7.35;;
84849;SDS011;75096;49.576;11.024;2024-03-22T00:09:25;13.18;;;7.13;;
84849;SDS011;75096;49.576;11.024;2024-03-22T00:10:25;12.52;;;6.80;;
84849;SDS011;75096;49.576;11.024;2024-03-22T00:11:26;11.60;;;6.95;;
84849;SDS011;75096;49.576;11.024;2024-03-22T00:12:26;12.15;;;6.97;;
84849;SDS011;75096;49.576;11.024;2024-03-22T00:13:27;12.85;;;6.32;;
84849;SDS011;75096;49.576;11.024;2024-03-22T00:14:28;11.65;;;6.63;;
84849;SDS011;75096;49.576;11.024;2024-03-22T00:15:28;12.90;;;6.95;;
84849;SDS011;75096;49.576;11.024;2024-03-22T00:16:29;13.70;;;7.03;;
84849;SDS011;75096;49.576;11.024;2024-03-22T00:17:30;12.18;;;6.68;;
84849;SDS011;75096;49.576;11.024;2024-03-22T00:18:31;14.02;;;6.40;;
84849;SDS011;75096;49.576;11.024;2024-03-22T00:19:31;15.05;;;8.55;;
84849;SDS011;75096;49.576;11.024;2024-03-22T00:20:32;15.05;;;8.73;;
84849;SDS011;75096;49.576;11.024;2024-03-22T00:21:32;15.18;;;7.65;;
84849;SDS011;75096;49.576;11.024;2024-03-22T00:22:33;16.85;;;8.23;;
84849;SDS011;75096;49.576;11.024;2024-03-22T00:23:34;14.63;;;7.82;;
84849;SDS011;75096;49.576;11.024;2024-03-22T00:24:34;11.80;;;7.32;;
84849;SDS011;75096;49.576;11.024;2024-03-22T00:25:35;11.85;;;6.82;;
84849;SDS011;75096;49.576;11.024;2024-03-22T00:26:36;14.82;;;7.75;;
84849;SDS011;75096;49.576;11.024;2024-03-22T00:27:36;14.48;;;6.85;;
84849;SDS011;75096;49.576;11.024;2024-03-22T00:28:37;13.63;;;7.75;;
84849;SDS011;75096;49.576;11.024;2024-03-22T00:29:37;14.02;;;7.35;;
84849;SDS011;75096;49.576;11.024;2024-03-22T00:30:38;12.20;;;7.10;;
84849;SDS011;75096;49.576;11.024;2024-03-22T00:31:39;12.93;;;6.60;;
84849;SDS011;75096;49.576;11.024;2024-03-22T00:32:40;13.20;;;6.70;;
84849;SDS011;75096;49.576;11.024;2024-03-22T00:33:40;12.30;;;6.63;;
84849;SDS011;75096;49.576;11.024;2024-03-22T00:34:41;12.82;;;7.00;;
84849;SDS011;75096;49.576;11.024;2024-03-22T00:35:42;11.95;;;6.85;;
84849;SDS011;75096;49.576;11.024;2024-03-22T00:36:42;13.70;;;7.32;;
84849;SDS011;75096;49.576;11.024;2024-03-22T00:37:43;11.52;;;6.45;;
84849;SDS011;75096;49.576;11.024;2024-03-22T00:38:44;13.93;;;6.75;;
84849;SDS011;75096;49.576;11.024;2024-03-22T00:39:45;14.02;;;7.32;;
84849;SDS011;75096;49.576;11.024;2024-03-22T00:40:45;12.93;;;6.78;;
84849;SDS011;75096;49.576;11.024;2024-03-22T00:41:46;14.77;;;7.15;;
84849;SDS011;75096;49.576;11.024;2024-03-22T00:42:46;12.90;;;7.50;;
84849;SDS011;75096;49.576;11.024;2024-03-22T00:43:47;10.60;;;6.22;;
84849;SDS011;75096;49.576;11.024;2024-03-22T00:44:48;13.93;;;6.85;;
84849;SDS011;75096;49.576;11.024;2024-03-22T00:45:48;12.57;;;6.40;;
84849;SDS011;75096;49.576;11.024;2024-03-22T00:46:49;12.10;;;6.18;;
84849;SDS011;75096;49.576;11.024;2024-03-22T00:47:50;12.07;;;6.70;;
84849;SDS011;75096;49.576;11.024;2024-03-22T00:48:50;12.15;;;6.07;;
84849;SDS011;75096;49.576;11.024;2024-03-22T00:49:51;13.55;;;7.00;;
84849;SDS011;75096;49.576;11.024;2024-03-22T00:50:51;12.60;;;7.10;;
84849;SDS011;75096;49.576;11.024;2024-03-22T00:51:52;10.95;;;6.15;;
84849;SDS011;75096;49.576;11.024;2024-03-22T00:52:55;12.50;;;6.82;;
84849;SDS011;75096;49.576;11.024;2024-03-22T00:53:56;11.05;;;6.25;;
84849;SDS011;75096;49.576;11.024;2024-03-22T00:54:57;12.32;;;6.55;;
84849;SDS011;75096;49.576;11.024;2024-03-22T00:55:57;12.45;;;6.60;;
84849;SDS011;75096;49.576;11.024;2024-03-22T00:56:59;12.35;;;6.32;;
84849;SDS011;75096;49.576;11.024;2024-03-22T00:58:00;16.33;;;6.70;;
84849;SDS011;75096;49.576;11.024;2024-03-22T00:59:01;11.15;;;6.60;;
84849;SDS011;75096;49.576;11.024;2024-03-22T01:00:01;10.65;;;5.63;;
84849;SDS011;75096;49.576;11.024;2024-03-22T01:01:02;12.52;;;6.82;;
84849;SDS011;75096;49.576;11.024;2024-03-22T01:02:03;12.93;;;6.88;;
84849;SDS011;75096;49.576;11.024;2024-03-22T01:03:04;10.85;;;6.25;;
84849;SDS011;75096;49.576;11.024;2024-03-22T01:04:06;14.10;;;7.07;;
84849;SDS011;75096;49.576;11.024;2024-03-22T01:05:09;11.77;;;6.13;;
84849;SDS011;75096;49.576;11.024;2024-03-22T01:06:09;11.70;;;6.32;;
84849;SDS011;75096;49.576;11.024;2024-03-22T01:07:10;10.05;;;5.57;;
84849;SDS011;75096;49.576;11.024;2024-03-22T01:08:11;10.98;;;6.10;;
84849;SDS011;75096;49.576;11.024;2024-03-22T01:09:11;13.40;;;6.63;;
84849;SDS011;75096;49.576;11.024;2024-03-22T01:10:12;10.75;;;5.80;;
84849;SDS011;75096;49.576;11.024;2024-03-22T01:11:13;11.40;;;6.35;;
84849;SDS011;75096;49.576;11.024;2024-03-22T01:12:13;10.60;;;6.05;;
84849;SDS011;75096;49.576;11.024;2024-03-22T01:13:15;11.20;;;6.10;;
84849;SDS011;75096;49.576;11.024;2024-03-22T01:14:15;11.82;;;6.25;;
84849;SDS011;75096;49.576;11.024;2024-03-22T01:15:16;12.02;;;5.75;;
84849;SDS011;75096;49.576;11.024;2024-03-22T01:16:16;11.80;;;6.63;;
84849;SDS011;75096;49.576;11.024;2024-03-22T01:17:17;15.27;;;6.70;;
84849;SDS011;75096;49.576;11.024;2024-03-22T01:18:18;10.88;;;5.85;;
84849;SDS011;75096;49.576;11.024;2024-03-22T01:19:19;11.25;;;6.25;;
84849;SDS011;75096;49.576;11.024;2024-03-22T01:20:20;11.05;;;5.80;;
84849;SDS011;75096;49.576;11.024;2024-03-22T01:21:21;12.02;;;5.93;;
84849;SDS011;75096;49.576;11.024;2024-03-22T01:22:25;10.73;;;5.75;;
84849;SDS011;75096;49.576;11.024;2024-03-22T01:23:26;11.82;;;6.15;;
84849;SDS011;75096;49.576;11.024;2024-03-22T01:24:26;10.55;;;5.50;;
84849;SDS011;75096;49.576;11.024;2024-03-22T01:25:27;9.70;;;5.15;;
84849;SDS011;75096;49.576;11.024;2024-03-22T01:26:28;11.73;;;5.60;;
84849;SDS011;75096;49.576;11.024;2024-03-22T01:27:29;10.95;;;5.80;;
84849;SDS011;75096;49.576;11.024;2024-03-22T01:28:29;10.50;;;5.75;;
84849;SDS011;75096;49.576;11.024;2024-03-22T01:29:30;12.90;;;6.38;;
84849;SDS011;75096;49.576;11.024;2024-03-22T01:30:31;10.70;;;5.50;;
84849;SDS011;75096;49.576;11.024;2024-03-22T01:31:33;13.05;;;6.22;;
84849;SDS011;75096;49.576;11.024;2024-03-22T01:32:35;11.50;;;5.63;;
84849;SDS011;75096;49.576;11.024;2024-03-22T01:33:35;11.70;;;6.40;;
84849;SDS011;75096;49.576;11.024;2024-03-22T01:34:36;10.05;;;6.15;;
84849;SDS011;75096;49.576;11.024;2024-03-22T01:35:37;10.32;;;5.47;;
84849;SDS011;75096;49.576;11.024;2024-03-22T01:36:37;11.85;;;5.90;;
84849;SDS011;75096;49.576;11.024;2024-03-22T01:37:38;10.77;;;5.82;;
84849;SDS011;75096;49.576;11.024;2024-03-22T01:38:39;11.50;;;6.20;;
84849;SDS011;75096;49.576;11.024;2024-03-22T01:39:39;10.90;;;5.97;;
84849;SDS011;75096;49.576;11.024;2024-03-22T01:40:40;10.93;;;5.82;;
84849;SDS011;75096;49.576;11.024;2024-03-22T01:41:40;9.15;;;5.00;;
84849;SDS011;75096;49.576;11.024;2024-03-22T01:42:41;10.98;;;5.88;;
84849;SDS011;75096;49.576;11.024;2024-03-22T01:43:42;11.02;;;5.55;;
84849;SDS011;75096;49.576;11.024;2024-03-22T01:44:42;12.45;;;6.10;;
84849;SDS011;75096;49.576;11.024;2024-03-22T01:45:43;11.88;;;6.03;;
84849;SDS011;75096;49.576;11.024;2024-03-22T01:46:44;10.95;;;6.00;;
84849;SDS011;75096;49.576;11.024;2024-03-22T01:47:44;10.68;;;6.03;;
84849;SDS011;75096;49.576;11.024;2024-03-22T01:48:45;12.52;;;6.85;;
84849;SDS011;75096;49.576;11.024;2024-03-22T01:49:47;11.88;;;6.25;;
84849;SDS011;75096;49.576;11.024;2024-03-22T01:50:48;10.82;;;5.28;;
84849;SDS011;75096;49.576;11.024;2024-03-22T01:51:49;13.70;;;6.40;;
84849;SDS011;75096;49.576;11.024;2024-03-22T01:52:49;11.55;;;6.05;;
84849;SDS011;75096;49.576;11.024;2024-03-22T01:53:51;9.77;;;5.63;;
84849;SDS011;75096;49.576;11.024;2024-03-22T01:54:53;9.63;;;5.43;;
84849;SDS011;75096;49.576;11.024;2024-03-22T01:55:53;11.50;;;5.28;;
84849;SDS011;75096;49.576;11.024;2024-03-22T01:56:54;9.82;;;5.47;;
84849;SDS011;75096;49.576;11.024;2024-03-22T01:57:55;10.43;;;5.80;;
84849;SDS011;75096;49.576;11.024;2024-03-22T01:58:56;11.10;;;5.45;;
84849;SDS011;75096;49.576;11.024;2024-03-22T01:59:56;11.43;;;5.57;;
84849;SDS011;75096;49.576;11.024;2024-03-22T02:00:58;12.80;;;5.70;;
84849;SDS011;75096;49.576;11.024;2024-03-22T02:01:59;9.77;;;4.63;;
84849;SDS011;75096;49.576;11.024;2024-03-22T02:03:00;10.38;;;5.45;;
84849;SDS011;75096;49.576;11.024;2024-03-22T02:04:01;8.70;;;4.70;;
84849;SDS011;75096;49.576;11.024;2024-03-22T02:05:16;10.60;;;4.90;;
84849;SDS011;75096;49.576;11.024;2024-03-22T02:06:21;9.40;;;5.20;;
84849;SDS011;75096;49.576;11.024;2024-03-22T02:07:22;9.35;;;5.05;;
84849;SDS011;75096;49.576;11.024;2024-03-22T02:08:22;12.15;;;5.30;;
84849;SDS011;75096;49.576;11.024;2024-03-22T02:09:24;8.80;;;4.75;;
84849;SDS011;75096;49.576;11.024;2024-03-22T02:10:25;9.75;;;5.03;;
84849;SDS011;75096;49.576;11.024;2024-03-22T02:11:26;9.90;;;5.45;;
84849;SDS011;75096;49.576;11.024;2024-03-22T02:12:27;10.48;;;5.70;;
84849;SDS011;75096;49.576;11.024;2024-03-22T02:13:27;9.20;;;4.90;;
84849;SDS011;75096;49.576;11.024;2024-03-22T02:14:28;11.27;;;5.60;;
84849;SDS011;75096;49.576;11.024;2024-03-22T02:15:29;10.10;;;5.30;;
84849;SDS011;75096;49.576;11.024;2024-03-22T02:16:30;10.38;;;6.00;;
84849;SDS011;75096;49.576;11.024;2024-03-22T02:17:31;11.30;;;5.50;;
84849;SDS011;75096;49.576;11.024;2024-03-22T02:18:32;11.20;;;5.70;;
84849;SDS011;75096;49.576;11.024;2024-03-22T02:19:33;11.77;;;6.32;;
84849;SDS011;75096;49.576;11.024;2024-03-22T02:20:33;11.00;;;5.90;;
84849;SDS011;75096;49.576;11.024;2024-03-22T02:21:34;11.38;;;5.72;;
84849;SDS011;75096;49.576;11.024;2024-03-22T02:22:35;10.05;;;5.80;;
84849;SDS011;75096;49.576;11.024;2024-03-22T02:23:36;10.68;;;5.57;;
84849;SDS011;75096;49.576;11.024;2024-03-22T02:24:38;11.07;;;5.55;;
84849;SDS011;75096;49.576;11.024;2024-03-22T02:25:38;11.95;;;6.00;;
84849;SDS011;75096;49.576;11.024;2024-03-22T02:26:39;9.98;;;5.30;;
84849;SDS011;75096;49.576;11.024;2024-03-22T02:27:40;9.75;;;4.97;;
84849;SDS011;75096;49.576;11.024;2024-03-22T02:28:41;11.52;;;5.80;;
84849;SDS011;75096;49.576;11.024;2024-03-22T02:29:42;11.02;;;5.57;;
84849;SDS011;75096;49.576;11.024;2024-03-22T02:30:43;11.23;;;5.78;;
84849;SDS011;75096;49.576;11.024;2024-03-22T02:31:43;10.32;;;5.68;;
84849;SDS011;75096;49.576;11.024;2024-03-22T02:32:44;10.98;;;5.97;;
84849;SDS011;75096;49.576;11.024;2024-03-22T02:33:44;11.40;;;6.13;;
84849;SDS011;75096;49.576;11.024;2024-03-22T02:34:45;11.65;;;5.60;;
84849;SDS011;75096;49.576;11.024;2024-03-22T02:35:49;10.07;;;5.45;;
84849;SDS011;75096;49.576;11.024;2024-03-22T02:36:50;10.88;;;5.18;;
84849;SDS011;75096;49.576;11.024;2024-03-22T02:37:50;10.15;;;5.53;;
84849;SDS011;75096;49.576;11.024;2024-03-22T02:38:51;10.07;;;5.57;;
84849;SDS011;75096;49.576;11.024;2024-03-22T02:39:51;10.85;;;5.85;;
84849;SDS011;75096;49.576;11.024;2024-03-22T02:40:52;11.20;;;5.72;;
84849;SDS011;75096;49.576;11.024;2024-03-22T02:41:53;11.68;;;6.60;;
84849;SDS011;75096;49.576;11.024;2024-03-22T02:42:53;10.98;;;6.03;;
84849;SDS011;75096;49.576;11.024;2024-03-22T02:43:54;10.73;;;6.30;;
84849;SDS011;75096;49.576;11.024;2024-03-22T02:44:55;11.98;;;5.82;;
84849;SDS011;75096;49.576;11.024;2024-03-22T02:45:55;11.60;;;5.70;;
84849;SDS011;75096;49.576;11.024;2024-03-22T02:46:56;11.13;;;6.03;;
84849;SDS011;75096;49.576;11.024;2024-03-22T02:47:56;10.52;;;5.53;;
84849;SDS011;75096;49.576;11.024;2024-03-22T02:48:57;10.68;;;5.45;;
84849;SDS011;75096;49.576;11.024;2024-03-22T02:49:58;12.00;;;6.20;;
84849;SDS011;75096;49.576;11.024;2024-03-22T02:50:58;10.95;;;6.35;;
84849;SDS011;75096;49.576;11.024;2024-03-22T02:51:59;10.52;;;5.22;;
84849;SDS011;75096;49.576;11.024;2024-03-22T02:53:00;11.18;;;5.60;;
84849;SDS011;75096;49.576;11.024;2024-03-22T02:54:01;9.73;;;5.53;;
84849;SDS011;75096;49.576;11.024;2024-03-22T02:55:02;12.05;;;5.63;;
84849;SDS011;75096;49.576;11.024;2024-03-22T02:56:03;11.40;;;5.75;;
84849;SDS011;75096;49.576;11.024;2024-03-22T02:57:03;11.45;;;5.75;;
84849;SDS011;75096;49.576;11.024;2024-03-22T02:58:04;11.32;;;5.78;;
84849;SDS011;75096;49.576;11.024;2024-03-22T02:59:05;11.60;;;6.35;;
84849;SDS011;75096;49.576;11.024;2024-03-22T03:00:06;10.82;;;5.90;;
84849;SDS011;75096;49.576;11.024;2024-03-22T03:01:07;14.15;;;7.25;;
84849;SDS011;75096;49.576;11.024;2024-03-22T03:02:08;11.93;;;6.28;;
84849;SDS011;75096;49.576;11.024;2024-03-22T03:03:08;13.25;;;7.00;;
84849;SDS011;75096;49.576;11.024;2024-03-22T03:04:09;12.10;;;6.65;;
84849;SDS011;75096;49.576;11.024;2024-03-22T03:05:10;11.52;;;6.90;;
84849;SDS011;75096;49.576;11.024;2024-03-22T03:06:10;12.32;;;6.38;;
84849;SDS011;75096;49.576;11.024;2024-03-22T03:07:13;12.55;;;6.80;;
84849;SDS011;75096;49.576;11.024;2024-03-22T03:08:13;12.50;;;6.30;;
84849;SDS011;75096;49.576;11.024;2024-03-22T03:09:14;12.02;;;6.43;;
84849;SDS011;75096;49.576;11.024;2024-03-22T03:10:15;13.38;;;6.68;;
84849;SDS011;75096;49.576;11.024;2024-03-22T03:11:15;11.52;;;6.18;;
84849;SDS011;75096;49.576;11.024;2024-03-22T03:12:16;12.43;;;6.30;;
84849;SDS011;75096;49.576;11.024;2024-03-22T03:13:16;12.45;;;6.47;;
84849;SDS011;75096;49.576;11.024;2024-03-22T03:14:17;12.15;;;6.60;;
84849;SDS011;75096;49.576;11.024;2024-03-22T03:15:17;11.80;;;6.32;;
84849;SDS011;75096;49.576;11.024;2024-03-22T03:16:18;11.68;;;6.22;;
84849;SDS011;75096;49.576;11.024;2024-03-22T03:17:18;13.05;;;7.32;;
84849;SDS011;75096;49.576;11.024;2024-03-22T03:18:19;11.77;;;6.38;;
84849;SDS011;75096;49.576;11.024;2024-03-22T03:19:19;11.63;;;6.30;;
84849;SDS011;75096;49.576;11.024;2024-03-22T03:20:20;12.02;;;6.15;;
84849;SDS011;75096;49.576;11.024;2024-03-22T03:21:21;12.65;;;6.88;;
84849;SDS011;75096;49.576;11.024;2024-03-22T03:22:21;12.57;;;7.25;;
84849;SDS011;75096;49.576;11.024;2024-03-22T03:23:22;13.20;;;6.90;;
84849;SDS011;75096;49.576;11.024;2024-03-22T03:24:22;12.20;;;6.15;;
84849;SDS011;75096;49.576;11.024;2024-03-22T03:25:23;13.40;;;7.00;;
84849;SDS011;75096;49.576;11.024;2024-03-22T03:26:24;14.82;;;7.63;;
84849;SDS011;75096;49.576;11.024;2024-03-22T03:27:24;12.63;;;7.32;;
84849;SDS011;75096;49.576;11.024;2024-03-22T03:28:25;12.18;;;6.70;;
84849;SDS011;75096;49.576;11.024;2024-03-22T03:29:26;12.10;;;5.80;;
84849;SDS011;75096;49.576;11.024;2024-03-22T03:30:26;14.25;;;7.00;;
84849;SDS011;75096;49.576;11.024;2024-03-22T03:31:27;11.38;;;6.55;;
84849;SDS011;75096;49.576;11.024;2024-03-22T03:32:28;14.70;;;7.22;;
84849;SDS011;75096;49.576;11.024;2024-03-22T03:33:29;13.07;;;6.25;;
84849;SDS011;75096;49.576;11.024;2024-03-22T03:34:30;12.98;;;6.28;;
84849;SDS011;75096;49.576;11.024;2024-03-22T03:35:31;12.32;;;7.20;;
84849;SDS011;75096;49.576;11.024;2024-03-22T03:36:31;12.40;;;6.57;;
84849;SDS011;75096;49.576;11.024;2024-03-22T03:37:32;12.15;;;6.28;;
84849;SDS011;75096;49.576;11.024;2024-03-22T03:38:32;11.52;;;6.28;;
84849;SDS011;75096;49.576;11.024;2024-03-22T03:39:33;12.85;;;6.07;;
84849;SDS011;75096;49.576;11.024;2024-03-22T03:40:34;12.80;;;6.20;;
84849;SDS011;75096;49.576;11.024;2024-03-22T03:41:35;10.65;;;6.05;;
84849;SDS011;75096;49.576;11.024;2024-03-22T03:42:36;12.15;;;6.72;;
84849;SDS011;75096;49.576;11.024;2024-03-22T03:43:36;11.10;;;6.63;;
84849;SDS011;75096;49.576;11.024;2024-03-22T03:44:37;12.70;;;6.25;;
84849;SDS011;75096;49.576;11.024;2024-03-22T03:45:37;11.40;;;6.30;;
84849;SDS011;75096;49.576;11.024;2024-03-22T03:46:38;12.82;;;6.88;;
84849;SDS011;75096;49.576;11.024;2024-03-22T03:47:38;12.48;;;6.60;;
84849;SDS011;75096;49.576;11.024;2024-03-22T03:48:39;11.77;;;6.55;;
84849;SDS011;75096;49.576;11.024;2024-03-22T03:49:39;12.38;;;6.85;;
84849;SDS011;75096;49.576;11.024;2024-03-22T03:50:40;11.73;;;6.43;;
84849;SDS011;75096;49.576;11.024;2024-03-22T03:51:41;12.57;;;7.00;;
84849;SDS011;75096;49.576;11.024;2024-03-22T03:52:41;11.68;;;7.05;;
84849;SDS011;75096;49.576;11.024;2024-03-22T03:53:42;12.23;;;7.28;;
84849;SDS011;75096;49.576;11.024;2024-03-22T03:54:43;13.25;;;6.53;;
84849;SDS011;75096;49.576;11.024;2024-03-22T03:55:43;11.55;;;6.97;;
84849;SDS011;75096;49.576;11.024;2024-03-22T03:56:44;11.68;;;6.47;;
84849;SDS011;75096;49.576;11.024;2024-03-22T03:57:44;13.50;;;6.78;;
84849;SDS011;75096;49.576;11.024;2024-03-22T03:58:45;11.13;;;6.65;;
84849;SDS011;75096;49.576;11.024;2024-03-22T03:59:46;10.93;;;6.07;;
84849;SDS011;75096;49.576;11.024;2024-03-22T04:00:47;11.02;;;5.88;;
84849;SDS011;75096;49.576;11.024;2024-03-22T04:01:48;13.77;;;6.55;;
84849;SDS011;75096;49.576;11.024;2024-03-22T04:02:48;11.75;;;6.15;;
84849;SDS011;75096;49.576;11.024;2024-03-22T04:03:49;12.77;;;7.15;;
84849;SDS011;75096;49.576;11.024;2024-03-22T04:04:53;12.88;;;7.03;;
84849;SDS011;75096;49.576;11.024;2024-03-22T04:05:57;13.23;;;6.93;;
84849;SDS011;75096;49.576;11.024;2024-03-22T04:06:58;11.15;;;6.07;;
84849;SDS011;75096;49.576;11.024;2024-03-22T04:07:58;11.45;;;6.47;;
84849;SDS011;75096;49.576;11.024;2024-03-22T04:08:59;12.60;;;6.65;;
84849;SDS011;75096;49.576;11.024;2024-03-22T04:10:00;11.82;;;6.75;;
84849;SDS011;75096;49.576;11.024;2024-03-22T04:11:01;11.15;;;6.30;;
84849;SDS011;75096;49.576;11.024;2024-03-22T04:12:03;10.23;;;5.97;;
84849;SDS011;75096;49.576;11.024;2024-03-22T04:13:03;12.20;;;6.50;;
84849;SDS011;75096;49.576;11.024;2024-03-22T04:14:04;11.23;;;6.43;;
84849;SDS011;75096;49.576;11.024;2024-03-22T04:15:06;11.43;;;6.50;;
84849;SDS011;75096;49.576;11.024;2024-03-22T04:16:08;12.10;;;6.28;;
84849;SDS011;75096;49.576;11.024;2024-03-22T04:17:08;12.82;;;6.40;;
84849;SDS011;75096;49.576;11.024;2024-03-22T04:18:09;11.80;;;6.68;;
84849;SDS011;75096;49.576;11.024;2024-03-22T04:19:09;12.15;;;6.45;;
84849;SDS011;75096;49.576;11.024;2024-03-22T04:20:10;10.80;;;6.00;;
84849;SDS011;75096;49.576;11.024;2024-03-22T04:21:11;10.88;;;6.00;;
84849;SDS011;75096;49.576;11.024;2024-03-22T04:22:12;10.52;;;6.10;;
84849;SDS011;75096;49.576;11.024;2024-03-22T04:23:12;12.35;;;6.20;;
84849;SDS011;75096;49.576;11.024;2024-03-22T04:24:13;11.55;;;6.90;;
84849;SDS011;75096;49.576;11.024;2024-03-22T04:25:14;12.43;;;6.28;;
84849;SDS011;75096;49.576;11.024;2024-03-22T04:26:14;11.90;;;6.45;;
84849;SDS011;75096;49.576;11.024;2024-03-22T04:27:15;11.43;;;6.38;;
84849;SDS011;75096;49.576;11.024;2024-03-22T04:28:15;11.63;;;6.30;;
84849;SDS011;75096;49.576;11.024;2024-03-22T04:29:16;11.50;;;6.38;;
84849;SDS011;75096;49.576;11.024;2024-03-22T04:30:17;11.50;;;6.25;;
84849;SDS011;75096;49.576;11.024;2024-03-22T04:31:17;12.15;;;6.70;;
84849;SDS011;75096;49.576;11.024;2024-03-22T04:32:18;11.52;;;6.75;;
84849;SDS011;75096;49.576;11.024;2024-03-22T04:33:18;11.95;;;7.25;;
84849;SDS011;75096;49.576;11.024;2024-03-22T04:34:19;11.60;;;6.65;;
84849;SDS011;75096;49.576;11.024;2024-03-22T04:35:20;12.05;;;6.25;;
84849;SDS011;75096;49.576;11.024;2024-03-22T04:36:21;11.00;;;6.22;;
84849;SDS011;75096;49.576;11.024;2024-03-22T04:37:22;11.38;;;6.68;;
84849;SDS011;75096;49.576;11.024;2024-03-22T04:38:22;10.57;;;6.18;;
84849;SDS011;75096;49.576;11.024;2024-03-22T04:39:23;12.57;;;6.63;;
84849;SDS011;75096;49.576;11.024;2024-03-22T04:40:24;14.88;;;6.22;;
84849;SDS011;75096;49.576;11.024;2024-03-22T04:41:25;12.27;;;6.90;;
84849;SDS011;75096;49.576;11.024;2024-03-22T04:42:26;11.30;;;6.25;;
84849;SDS011;75096;49.576;11.024;2024-03-22T04:43:27;11.90;;;6.15;;
84849;SDS011;75096;49.576;11.024;2024-03-22T04:44:28;12.95;;;6.47;;
84849;SDS011;75096;49.576;11.024;2024-03-22T04:45:29;12.40;;;6.25;;
84849;SDS011;75096;49.576;11.024;2024-03-22T04:46:29;10.10;;;5.93;;
84849;SDS011;75096;49.576;11.024;2024-03-22T04:47:30;12.15;;;6.43;;
84849;SDS011;75096;49.576;11.024;2024-03-22T04:48:30;12.00;;;6.60;;
84849;SDS011;75096;49.576;11.024;2024-03-22T04:49:31;12.80;;;6.43;;
84849;SDS011;75096;49.576;11.024;2024-03-22T04:50:32;10.82;;;5.80;;
84849;SDS011;75096;49.576;11.024;2024-03-22T04:51:33;11.35;;;7.10;;
84849;SDS011;75096;49.576;11.024;2024-03-22T04:52:33;10.27;;;6.10;;
84849;SDS011;75096;49.576;11.024;2024-03-22T04:53:34;13.07;;;7.72;;
84849;SDS011;75096;49.576;11.024;2024-03-22T04:54:34;11.20;;;6.00;;
84849;SDS011;75096;49.576;11.024;2024-03-22T04:55:35;15.30;;;5.93;;
84849;SDS011;75096;49.576;11.024;2024-03-22T04:56:36;11.60;;;5.85;;
84849;SDS011;75096;49.576;11.024;2024-03-22T04:57:36;9.75;;;5.72;;
84849;SDS011;75096;49.576;11.024;2024-03-22T04:58:37;11.90;;;6.07;;
84849;SDS011;75096;49.576;11.024;2024-03-22T04:59:37;11.13;;;5.90;;
84849;SDS011;75096;49.576;11.024;2024-03-22T05:00:38;10.88;;;5.90;;
84849;SDS011;75096;49.576;11.024;2024-03-22T05:01:39;11.05;;;6.15;;
84849;SDS011;75096;49.576;11.024;2024-03-22T05:02:39;11.48;;;6.32;;
84849;SDS011;75096;49.576;11.024;2024-03-22T05:03:40;11.48;;;6.20;;
84849;SDS011;75096;49.576;11.024;2024-03-22T05:04:41;11.00;;;5.97;;
84849;SDS011;75096;49.576;11.024;2024-03-22T05:05:42;11.20;;;5.72;;
84849;SDS011;75096;49.576;11.024;2024-03-22T05:06:43;11.23;;;6.03;;
84849;SDS011;75096;49.576;11.024;2024-03-22T05:07:43;11.27;;;6.32;;
84849;SDS011;75096;49.576;11.024;2024-03-22T05:08:44;11.18;;;6.00;;
84849;SDS011;75096;49.576;11.024;2024-03-22T05:09:45;12.10;;;5.75;;
84849;SDS011;75096;49.576;11.024;2024-03-22T05:10:45;12.50;;;6.45;;
84849;SDS011;75096;49.576;11.024;2024-03-22T05:11:46;11.40;;;6.30;;
84849;SDS011;75096;49.576;11.024;2024-03-22T05:12:50;12.40;;;6.70;;
84849;SDS011;75096;49.576;11.024;2024-03-22T05:13:50;10.20;;;6.00;;
84849;SDS011;75096;49.576;11.024;2024-03-22T05:14:51;11.05;;;6.00;;
84849;SDS011;75096;49.576;11.024;2024-03-22T05:15:51;11.02;;;6.15;;
84849;SDS011;75096;49.576;11.024;2024-03-22T05:16:52;11.70;;;5.82;;
84849;SDS011;75096;49.576;11.024;2024-03-22T05:17:53;12.45;;;6.88;;
84849;SDS011;75096;49.576;11.024;2024-03-22T05:18:58;12.68;;;6.20;;
84849;SDS011;75096;49.576;11.024;2024-03-22T05:19:59;10.02;;;5.78;;
84849;SDS011;75096;49.576;11.024;2024-03-22T05:20:59;12.43;;;5.85;;
84849;SDS011;75096;49.576;11.024;2024-03-22T05:22:00;11.00;;;5.65;;
84849;SDS011;75096;49.576;11.024;2024-03-22T05:23:01;14.55;;;5.97;;
84849;SDS011;75096;49.576;11.024;2024-03-22T05:24:01;10.40;;;5.57;;
84849;SDS011;75096;49.576;11.024;2024-03-22T05:25:02;13.05;;;6.45;;
84849;SDS011;75096;49.576;11.024;2024-03-22T05:26:03;9.65;;;5.13;;
84849;SDS011;75096;49.576;11.024;2024-03-22T05:27:04;11.18;;;6.00;;
84849;SDS011;75096;49.576;11.024;2024-03-22T05:28:05;10.18;;;5.95;;
84849;SDS011;75096;49.576;11.024;2024-03-22T05:29:05;10.32;;;5.60;;
84849;SDS011;75096;49.576;11.024;2024-03-22T05:30:06;11.80;;;6.50;;
84849;SDS011;75096;49.576;11.024;2024-03-22T05:31:07;17.33;;;9.20;;
84849;SDS011;75096;49.576;11.024;2024-03-22T05:32:08;16.50;;;8.05;;
84849;SDS011;75096;49.576;11.024;2024-03-22T05:33:08;13.45;;;6.65;;
84849;SDS011;75096;49.576;11.024;2024-03-22T05:34:09;12.05;;;5.80;;
84849;SDS011;75096;49.576;11.024;2024-03-22T05:35:10;15.48;;;6.30;;
84849;SDS011;75096;49.576;11.024;2024-03-22T05:36:10;11.18;;;5.57;;
84849;SDS011;75096;49.576;11.024;2024-03-22T05:37:11;10.15;;;5.40;;
84849;SDS011;75096;49.576;11.024;2024-03-22T05:38:12;12.88;;;5.45;;
84849;SDS011;75096;49.576;11.024;2024-03-22T05:39:12;11.52;;;6.35;;
84849;SDS011;75096;49.576;11.024;2024-03-22T05:40:14;11.95;;;6.03;;
84849;SDS011;75096;49.576;11.024;2024-03-22T05:41:16;12.02;;;5.85;;
84849;SDS011;75096;49.576;11.024;2024-03-22T05:42:17;11.13;;;6.05;;
84849;SDS011;75096;49.576;11.024;2024-03-22T05:43:17;10.27;;;5.72;;
84849;SDS011;75096;49.576;11.024;2024-03-22T05:44:18;10.07;;;5.75;;
84849;SDS011;75096;49.576;11.024;2024-03-22T05:45:18;12.20;;;6.07;;
84849;SDS011;75096;49.576;11.024;2024-03-22T05:46:19;12.57;;;6.00;;
84849;SDS011;75096;49.576;11.024;2024-03-22T05:47:19;11.02;;;5.85;;
84849;SDS011;75096;49.576;11.024;2024-03-22T05:48:20;11.70;;;6.55;;
84849;SDS011;75096;49.576;11.024;2024-03-22T05:49:21;12.02;;;6.15;;
84849;SDS011;75096;49.576;11.024;2024-03-22T05:50:21;13.35;;;6.57;;
84849;SDS011;75096;49.576;11.024;2024-03-22T05:51:22;11.70;;;6.35;;
84849;SDS011;75096;49.576;11.024;2024-03-22T05:52:23;11.65;;;6.20;;
84849;SDS011;75096;49.576;11.024;2024-03-22T05:53:23;11.25;;;6.22;;
84849;SDS011;75096;49.576;11.024;2024-03-22T05:54:24;13.10;;;5.90;;
84849;SDS011;75096;49.576;11.024;2024-03-22T05:55:25;12.60;;;6.40;;